Weather at Wyeth-Ayerst Nr Heliport

Public forecast

Using degrees Fahrenheit for public forecast. Weather courtesy of forecast.io.

Closest aviation weather report (METAR) to Wyeth-Ayerst Nr Heliport

Closest report is Heritage Field, 6.5 nm (12.0 km) NW. Retrieved 2022/01/22 19:54 UTC (16 minutes ago):

KPTW 221954Z AUTO 00000KT 10SM CLR M02/M18 A3026 RMK AO2 SLP248 T10221178

Closest aviation forecast (TAF) to Wyeth-Ayerst Nr Heliport

Closest forecast is Philadelphia International Airport, 20.0 nm (37.1 km) SSE. Retrieved 2022/01/22 18:37 UTC (2 hours ago):

TAF KPHL 221733Z 2218/2324 VRB03KT P6SM SCT200 FM230600 25005KT P6SM SCT200 FM231400 26009KT P6SM SCT120 BKN200 FM231800 26009KT P6SM SCT035 OVC070 FM232200 27004KT P6SM -SN SCT025 OVC050